createdAt,value
2019-06-08T00:01:43.092Z,23.80
2019-06-08T00:04:16.475Z,23.60
2019-06-08T00:06:48.866Z,23.50
2019-06-08T00:09:22.571Z,23.20
2019-06-08T00:11:55.341Z,23.00
2019-06-08T00:14:28.087Z,22.70
2019-06-08T00:17:00.614Z,22.40
2019-06-08T00:19:33.457Z,22.00
2019-06-08T00:22:09.172Z,21.70
2019-06-08T00:24:51.067Z,21.40
2019-06-08T00:27:24.632Z,21.10
2019-06-08T00:32:39.762Z,20.50
2019-06-08T00:35:12.409Z,20.10
2019-06-08T00:37:44.743Z,19.80
2019-06-08T00:40:17.388Z,19.40
2019-06-08T00:42:49.900Z,19.20
2019-06-08T00:45:23.588Z,18.90
2019-06-08T00:47:56.354Z,18.70
2019-06-08T00:50:29.333Z,18.50
2019-06-08T00:53:02.461Z,18.30
2019-06-08T00:55:34.727Z,18.20
2019-06-08T00:58:07.390Z,18.10
2019-06-08T01:00:40.030Z,18.10
2019-06-08T01:03:13.350Z,18.10
2019-06-08T01:05:46.058Z,18.00
2019-06-08T01:08:20.151Z,18.00
2019-06-08T01:10:52.430Z,18.00
2019-06-08T01:13:25.229Z,18.00
2019-06-08T01:15:57.812Z,17.90
2019-06-08T01:18:30.174Z,17.90
2019-06-08T01:21:03.062Z,17.80
2019-06-08T01:23:35.900Z,17.70
2019-06-08T01:26:08.622Z,17.60
2019-06-08T01:28:41.310Z,17.50
2019-06-08T01:31:14.314Z,17.40
2019-06-08T01:33:46.882Z,17.30
2019-06-08T01:36:20.681Z,17.10
2019-06-08T01:38:53.208Z,16.90
2019-06-08T01:41:25.938Z,16.70
2019-06-08T01:43:58.917Z,16.60
2019-06-08T01:46:32.305Z,16.40
2019-06-08T01:49:05.716Z,16.20
2019-06-08T01:51:38.090Z,16.00
2019-06-08T01:54:10.661Z,15.80
2019-06-08T01:56:43.454Z,15.70
2019-06-08T01:59:16.030Z,15.50
2019-06-08T02:01:48.394Z,15.30
2019-06-08T02:04:20.969Z,15.10
2019-06-08T02:06:53.346Z,15.00
2019-06-08T02:09:26.456Z,15.00
2019-06-08T02:11:58.773Z,15.00
2019-06-08T02:14:31.227Z,15.10
2019-06-08T02:17:03.658Z,15.30
2019-06-08T02:19:36.504Z,15.20
2019-06-08T02:22:09.217Z,15.20
2019-06-08T02:24:41.694Z,15.20
2019-06-08T02:27:14.906Z,15.10
2019-06-08T02:29:48.103Z,15.10
2019-06-08T02:32:20.653Z,15.10
2019-06-08T02:34:53.213Z,15.00
2019-06-08T02:37:26.487Z,14.80
2019-06-08T02:39:58.655Z,14.60
2019-06-08T02:42:32.639Z,14.50
2019-06-08T02:45:05.298Z,14.40
2019-06-08T02:47:38.358Z,14.30
2019-06-08T02:50:11.360Z,14.10
2019-06-08T02:52:45.166Z,14.10
2019-06-08T02:55:18.152Z,14.00
2019-06-08T02:57:52.235Z,14.00
2019-06-08T03:00:24.883Z,14.00
2019-06-08T03:02:58.894Z,13.90
2019-06-08T03:05:34.065Z,14.00
2019-06-08T03:08:08.587Z,14.10
2019-06-08T03:10:42.291Z,14.20
2019-06-08T03:13:14.791Z,14.30
2019-06-08T03:15:47.696Z,14.50
2019-06-08T03:18:20.271Z,14.50
2019-06-08T03:20:52.939Z,14.40
2019-06-08T03:23:25.406Z,14.30
2019-06-08T03:25:58.160Z,14.20
2019-06-08T03:28:32.498Z,14.20
2019-06-08T03:31:05.095Z,14.30
2019-06-08T03:33:43.209Z,14.20
2019-06-08T03:36:12.067Z,14.30
2019-06-08T03:38:44.984Z,14.20
2019-06-08T03:41:17.549Z,14.10
2019-06-08T03:43:50.439Z,14.00
2019-06-08T03:46:23.618Z,13.90
2019-06-08T03:48:56.202Z,13.70
2019-06-08T03:51:28.726Z,13.60
2019-06-08T03:54:01.051Z,13.50
2019-06-08T03:56:33.614Z,13.60
2019-06-08T03:59:06.110Z,13.70
2019-06-08T04:01:39.776Z,13.80
2019-06-08T04:04:12.551Z,13.60
2019-06-08T04:06:45.751Z,13.50
2019-06-08T04:09:19.052Z,13.60
2019-06-08T04:11:51.880Z,13.60
2019-06-08T04:14:24.953Z,13.50
2019-06-08T04:16:57.532Z,13.50
2019-06-08T04:19:30.310Z,13.40
2019-06-08T04:22:02.707Z,13.40
2019-06-08T04:24:35.770Z,13.30
2019-06-08T04:27:08.971Z,13.30
2019-06-08T04:29:41.866Z,13.30
2019-06-08T04:32:14.906Z,13.30
2019-06-08T04:34:49.441Z,13.30
2019-06-08T04:37:21.654Z,13.50
2019-06-08T04:39:54.418Z,13.70
2019-06-08T04:42:27.063Z,13.80
2019-06-08T04:44:59.474Z,13.90
2019-06-08T04:47:32.351Z,14.00
2019-06-08T04:50:20.750Z,14.00
2019-06-08T04:52:40.811Z,13.90
2019-06-08T04:55:13.680Z,13.80
2019-06-08T04:57:48.637Z,13.80
2019-06-08T05:00:20.504Z,13.60
2019-06-08T05:02:53.866Z,13.40
2019-06-08T05:05:26.438Z,13.30
2019-06-08T05:07:59.568Z,13.00
2019-06-08T05:10:32.203Z,12.90
2019-06-08T05:13:04.882Z,12.70
2019-06-08T05:15:38.994Z,12.70
2019-06-08T05:18:11.286Z,12.60
2019-06-08T05:20:46.016Z,12.60
2019-06-08T05:23:18.221Z,12.60
2019-06-08T05:25:51.058Z,12.80
2019-06-08T05:28:23.897Z,12.80
2019-06-08T05:30:56.096Z,12.80
2019-06-08T05:33:28.831Z,12.90
2019-06-08T05:36:01.885Z,12.90
2019-06-08T05:38:34.799Z,12.90
2019-06-08T05:41:08.148Z,12.80
2019-06-08T05:43:41.643Z,12.60
2019-06-08T05:46:14.500Z,12.40
2019-06-08T05:48:47.998Z,12.30
2019-06-08T05:51:20.994Z,12.20
2019-06-08T05:53:53.817Z,12.00
2019-06-08T05:56:26.094Z,12.00
2019-06-08T05:58:58.910Z,11.80
2019-06-08T06:01:31.537Z,11.60
2019-06-08T06:04:04.325Z,11.60
2019-06-08T06:06:37.305Z,11.50
2019-06-08T06:09:11.214Z,11.40
2019-06-08T06:11:44.789Z,11.40
2019-06-08T06:14:17.152Z,11.40
2019-06-08T06:16:49.679Z,11.40
2019-06-08T06:19:22.295Z,11.40
2019-06-08T06:21:54.742Z,11.20
2019-06-08T06:24:26.847Z,11.10
2019-06-08T06:26:59.661Z,11.00
2019-06-08T06:29:32.132Z,10.90
2019-06-08T06:32:05.529Z,10.80
2019-06-08T06:34:38.109Z,10.50
2019-06-08T06:37:11.277Z,10.40
2019-06-08T06:39:45.928Z,10.30
2019-06-08T06:42:19.436Z,10.10
2019-06-08T06:44:52.517Z,9.80
2019-06-08T06:47:25.094Z,9.60
2019-06-08T06:49:58.052Z,9.40
2019-06-08T06:52:31.273Z,9.30
2019-06-08T06:55:03.785Z,9.20
2019-06-08T06:57:36.894Z,9.10
2019-06-08T07:00:10.999Z,9.00
2019-06-08T07:02:43.645Z,9.00
2019-06-08T07:05:16.205Z,9.10
2019-06-08T07:07:50.034Z,9.20
2019-06-08T07:10:23.607Z,9.10
2019-06-08T07:12:55.920Z,9.10
2019-06-08T07:15:40.928Z,9.10
2019-06-08T07:18:06.246Z,9.00
2019-06-08T07:20:38.800Z,8.80
2019-06-08T07:23:11.101Z,8.80
2019-06-08T07:25:44.271Z,8.70
2019-06-08T07:28:16.954Z,8.90
2019-06-08T07:30:50.631Z,9.00
2019-06-08T07:33:23.518Z,9.00
2019-06-08T07:35:56.118Z,8.90
2019-06-08T07:38:28.726Z,8.80
2019-06-08T07:41:01.876Z,8.70
2019-06-08T07:43:35.012Z,8.60
2019-06-08T07:46:07.490Z,8.40
2019-06-08T07:48:40.438Z,8.40
2019-06-08T07:51:13.153Z,8.30
2019-06-08T07:53:47.057Z,8.10
2019-06-08T07:56:20.499Z,8.00
2019-06-08T07:58:53.277Z,8.00
2019-06-08T08:01:35.707Z,8.00
2019-06-08T08:03:59.502Z,7.90
2019-06-08T08:06:32.016Z,8.00
2019-06-08T08:09:05.829Z,8.00
2019-06-08T08:11:38.591Z,8.00
2019-06-08T08:14:11.844Z,7.90
2019-06-08T08:16:44.490Z,7.80
2019-06-08T08:19:17.441Z,7.70
2019-06-08T08:21:51.877Z,7.60
2019-06-08T08:24:24.438Z,7.40
2019-06-08T08:27:01.300Z,7.40
2019-06-08T08:29:31.428Z,7.30
2019-06-08T08:32:04.221Z,7.20
2019-06-08T08:34:38.187Z,7.30
2019-06-08T08:37:11.223Z,7.30
2019-06-08T08:39:44.491Z,7.30
2019-06-08T08:42:18.020Z,7.40
2019-06-08T08:44:51.460Z,7.40
2019-06-08T08:47:24.846Z,7.40
2019-06-08T08:49:59.142Z,7.40
2019-06-08T08:52:37.130Z,7.50
2019-06-08T08:55:08.082Z,7.40
2019-06-08T08:57:41.591Z,7.30
2019-06-08T09:00:14.361Z,7.20
2019-06-08T09:02:48.905Z,7.10
2019-06-08T09:05:20.850Z,6.90
2019-06-08T09:07:53.753Z,6.80
2019-06-08T09:10:28.091Z,6.70
2019-06-08T09:13:04.430Z,6.70
2019-06-08T09:15:37.881Z,6.70
2019-06-08T09:18:11.433Z,6.70
2019-06-08T09:20:43.567Z,6.60
2019-06-08T09:23:21.637Z,6.50
2019-06-08T09:25:52.710Z,6.50
2019-06-08T09:28:28.350Z,6.20
2019-06-08T09:31:02.289Z,6.10
2019-06-08T09:33:33.415Z,5.80
2019-06-08T09:36:07.926Z,5.70
2019-06-08T09:38:40.918Z,5.70
2019-06-08T09:41:13.729Z,5.70
2019-06-08T09:43:48.592Z,5.70
2019-06-08T09:46:20.539Z,5.70
2019-06-08T09:48:54.066Z,5.60
2019-06-08T09:51:28.497Z,5.60
2019-06-08T09:54:05.655Z,5.60
2019-06-08T09:56:37.799Z,5.60
2019-06-08T09:59:11.077Z,5.60
2019-06-08T10:01:43.645Z,5.60
2019-06-08T10:04:16.638Z,5.90
2019-06-08T10:06:49.584Z,6.10
2019-06-08T10:09:22.054Z,6.20
2019-06-08T10:11:54.704Z,6.30
2019-06-08T10:14:28.197Z,6.30
2019-06-08T10:17:02.663Z,6.30
2019-06-08T10:19:35.188Z,6.30
2019-06-08T10:22:08.620Z,6.30
2019-06-08T10:24:41.761Z,6.40
2019-06-08T10:27:29.602Z,6.60
2019-06-08T10:30:04.269Z,6.90
2019-06-08T10:32:51.421Z,7.30
2019-06-08T10:35:24.262Z,7.50
2019-06-08T10:38:01.513Z,7.80
2019-06-08T10:40:31.667Z,7.90
2019-06-08T10:43:04.907Z,8.10
2019-06-08T10:45:37.924Z,8.20
2019-06-08T10:48:10.595Z,8.20
2019-06-08T10:50:43.084Z,8.30
2019-06-08T10:53:16.637Z,8.50
2019-06-08T10:55:49.455Z,8.60
2019-06-08T10:58:23.667Z,8.80
2019-06-08T11:00:57.855Z,9.00
2019-06-08T11:03:30.687Z,9.20
2019-06-08T11:06:04.452Z,9.40
2019-06-08T11:08:39.040Z,9.60
2019-06-08T11:11:13.122Z,9.90
2019-06-08T11:13:50.201Z,10.20
2019-06-08T11:16:21.709Z,10.40
2019-06-08T11:18:54.233Z,10.80
2019-06-08T11:21:28.577Z,11.20
2019-06-08T11:24:15.723Z,11.50
2019-06-08T11:26:34.597Z,11.70
2019-06-08T11:29:09.700Z,11.80
2019-06-08T11:31:41.538Z,12.00
2019-06-08T11:34:14.422Z,12.10
2019-06-08T11:36:48.411Z,12.30
2019-06-08T11:39:21.629Z,12.50
2019-06-08T11:41:54.450Z,12.70
2019-06-08T11:44:27.651Z,12.90
2019-06-08T11:47:00.402Z,13.10
2019-06-08T11:49:33.160Z,13.30
2019-06-08T11:52:06.827Z,13.60
2019-06-08T11:54:41.131Z,13.80
2019-06-08T11:57:14.828Z,14.00
2019-06-08T11:59:48.583Z,14.20
2019-06-08T12:02:21.323Z,14.50
2019-06-08T12:04:53.405Z,14.70
2019-06-08T12:07:29.965Z,15.00
2019-06-08T12:10:00.142Z,15.20
2019-06-08T12:12:32.929Z,15.30
2019-06-08T12:15:10.079Z,15.50
2019-06-08T12:17:41.123Z,15.70
2019-06-08T12:20:17.371Z,15.90
2019-06-08T12:22:48.373Z,16.10
2019-06-08T12:25:21.015Z,16.30
2019-06-08T12:27:53.222Z,16.40
2019-06-08T12:30:27.394Z,16.60
2019-06-08T12:33:00.170Z,16.80
2019-06-08T12:35:32.924Z,17.00
2019-06-08T12:38:08.400Z,17.20
2019-06-08T12:40:41.113Z,17.40
2019-06-08T12:43:14.611Z,17.50
2019-06-08T12:45:47.827Z,17.70
2019-06-08T12:48:24.911Z,17.80
2019-06-08T12:50:54.487Z,18.00
2019-06-08T12:53:28.267Z,18.20
2019-06-08T12:56:00.750Z,18.40
2019-06-08T12:58:33.454Z,18.60
2019-06-08T13:01:08.219Z,18.70
2019-06-08T13:03:39.906Z,18.80
2019-06-08T13:06:12.821Z,18.90
2019-06-08T13:08:47.816Z,19.00
2019-06-08T13:11:22.345Z,19.10
2019-06-08T13:13:55.008Z,19.30
2019-06-08T13:16:28.386Z,19.40
2019-06-08T13:19:01.517Z,19.30
2019-06-08T13:21:35.482Z,19.30
2019-06-08T13:24:09.871Z,19.60
2019-06-08T13:26:43.553Z,19.70
2019-06-08T13:29:18.834Z,19.60
2019-06-08T13:31:50.642Z,19.60
2019-06-08T13:34:24.388Z,19.80
2019-06-08T13:36:57.206Z,20.10
2019-06-08T13:39:29.914Z,20.30
2019-06-08T13:42:02.301Z,20.40
2019-06-08T13:44:37.680Z,20.50
2019-06-08T13:47:12.223Z,20.50
2019-06-08T13:49:44.421Z,20.70
2019-06-08T13:52:19.053Z,20.90
2019-06-08T13:54:51.213Z,20.60
2019-06-08T13:57:24.920Z,20.50
2019-06-08T13:59:57.833Z,20.50
2019-06-08T14:02:31.698Z,20.90
2019-06-08T14:05:04.391Z,21.10
2019-06-08T14:07:38.110Z,20.80
2019-06-08T14:10:12.513Z,21.10
2019-06-08T14:12:45.056Z,21.10
2019-06-08T14:15:19.262Z,21.20
2019-06-08T14:17:51.501Z,20.90
2019-06-08T14:20:33.687Z,20.90
2019-06-08T14:23:02.285Z,21.20
2019-06-08T14:25:47.842Z,21.60
2019-06-08T14:28:09.257Z,21.30
2019-06-08T14:30:41.671Z,21.10
2019-06-08T14:33:14.250Z,21.30
2019-06-08T14:35:46.889Z,21.50
2019-06-08T14:38:22.561Z,21.70
2019-06-08T14:40:54.229Z,22.00
2019-06-08T14:43:29.686Z,22.30
2019-06-08T14:46:00.876Z,22.50
2019-06-08T14:48:33.989Z,22.70
2019-06-08T14:51:08.781Z,22.50
2019-06-08T14:53:41.170Z,22.60
2019-06-08T14:56:14.070Z,22.40
2019-06-08T14:58:48.316Z,22.10
2019-06-08T15:01:22.614Z,22.50
2019-06-08T15:03:55.033Z,23.00
2019-06-08T15:06:31.034Z,23.10
2019-06-08T15:09:01.558Z,23.30
2019-06-08T15:11:35.254Z,22.90
2019-06-08T15:14:08.558Z,22.50
2019-06-08T15:16:41.958Z,22.60
2019-06-08T15:19:14.958Z,22.80
2019-06-08T15:21:48.436Z,22.90
2019-06-08T15:24:21.038Z,23.10
2019-06-08T15:26:53.495Z,23.50
2019-06-08T15:29:29.292Z,23.70
2019-06-08T15:32:00.285Z,24.00
2019-06-08T15:34:33.392Z,23.80
2019-06-08T15:37:08.768Z,23.70
2019-06-08T15:39:40.357Z,23.70
2019-06-08T15:42:13.280Z,24.00
2019-06-08T15:44:47.996Z,23.60
2019-06-08T15:47:22.152Z,23.30
2019-06-08T15:49:58.404Z,23.20
2019-06-08T15:52:32.358Z,23.80
2019-06-08T15:55:04.500Z,24.40
2019-06-08T15:57:40.525Z,24.60
2019-06-08T16:00:11.646Z,24.70
2019-06-08T16:02:44.333Z,24.70
2019-06-08T16:05:17.420Z,25.00
2019-06-08T16:07:50.787Z,25.00
2019-06-08T16:10:23.989Z,25.00
2019-06-08T16:12:56.625Z,25.40
2019-06-08T16:15:30.895Z,25.60
2019-06-08T16:18:03.367Z,25.60
2019-06-08T16:20:35.792Z,25.40
2019-06-08T16:23:08.685Z,25.30
2019-06-08T16:25:41.421Z,25.50
2019-06-08T16:28:14.019Z,25.60
2019-06-08T16:30:46.817Z,25.10
2019-06-08T16:33:19.858Z,25.30
2019-06-08T16:35:52.435Z,25.60
2019-06-08T16:38:25.322Z,26.00
2019-06-08T16:40:57.914Z,26.10
2019-06-08T16:43:31.043Z,26.30
2019-06-08T16:46:04.492Z,26.50
2019-06-08T16:48:39.410Z,26.60
2019-06-08T16:51:11.583Z,26.10
2019-06-08T16:53:43.702Z,26.40
2019-06-08T16:56:16.319Z,26.40
2019-06-08T16:58:48.605Z,26.80
2019-06-08T17:01:39.758Z,26.90
2019-06-08T17:04:12.602Z,26.80
2019-06-08T17:06:44.847Z,27.00
2019-06-08T17:09:17.649Z,27.10
2019-06-08T17:11:50.424Z,27.20
2019-06-08T17:14:25.108Z,27.10
2019-06-08T17:16:57.641Z,27.10
2019-06-08T17:19:30.421Z,27.20
2019-06-08T17:22:02.610Z,27.10
2019-06-08T17:24:34.919Z,26.50
2019-06-08T17:27:07.102Z,26.10
2019-06-08T17:29:40.966Z,26.10
2019-06-08T17:32:13.637Z,26.90
2019-06-08T17:34:45.847Z,27.30
2019-06-08T17:37:18.573Z,27.70
2019-06-08T17:39:51.145Z,27.60
2019-06-08T17:42:24.130Z,27.30
2019-06-08T17:44:56.928Z,27.40
2019-06-08T17:47:30.676Z,27.20
2019-06-08T17:50:03.315Z,27.40
2019-06-08T17:52:37.315Z,27.50
2019-06-08T17:55:10.426Z,27.90
2019-06-08T17:57:52.711Z,28.30
2019-06-08T18:00:17.635Z,28.60
2019-06-08T18:02:49.877Z,28.40
2019-06-08T18:05:22.650Z,28.40
2019-06-08T18:07:57.714Z,28.40
2019-06-08T18:10:30.266Z,28.00
2019-06-08T18:13:02.451Z,28.00
2019-06-08T18:15:36.586Z,28.20
2019-06-08T18:18:08.765Z,28.20
2019-06-08T18:20:42.432Z,28.30
2019-06-08T18:23:17.223Z,28.50
2019-06-08T18:25:49.155Z,28.40
2019-06-08T18:28:21.753Z,28.40
2019-06-08T18:30:54.513Z,28.30
2019-06-08T18:33:27.421Z,28.40
2019-06-08T18:35:59.734Z,28.80
2019-06-08T18:38:32.370Z,28.80
2019-06-08T18:41:07.744Z,28.90
2019-06-08T18:43:41.548Z,28.80
2019-06-08T18:46:13.742Z,29.00
2019-06-08T18:48:49.239Z,29.10
2019-06-08T18:51:20.586Z,29.10
2019-06-08T18:54:07.074Z,29.50
2019-06-08T18:56:27.703Z,29.60
2019-06-08T18:59:00.306Z,29.60
2019-06-08T19:01:33.230Z,29.50
2019-06-08T19:04:07.631Z,29.50
2019-06-08T19:06:41.213Z,29.50
2019-06-08T19:09:17.039Z,29.60
2019-06-08T19:11:50.190Z,29.60
2019-06-08T19:14:23.195Z,29.60
2019-06-08T19:16:57.936Z,29.50
2019-06-08T19:19:31.434Z,29.80
2019-06-08T19:22:04.962Z,30.00
2019-06-08T19:24:40.795Z,29.80
2019-06-08T19:27:11.530Z,29.30
2019-06-08T19:29:45.175Z,29.60
2019-06-08T19:32:18.001Z,29.20
2019-06-08T19:34:53.969Z,29.60
2019-06-08T19:37:24.785Z,29.60
2019-06-08T19:39:57.768Z,29.80
2019-06-08T19:42:39.973Z,29.90
2019-06-08T19:45:08.389Z,30.00
2019-06-08T19:47:40.437Z,29.70
2019-06-08T19:50:13.329Z,29.50
2019-06-08T19:52:52.225Z,29.40
2019-06-08T19:55:20.338Z,29.20
2019-06-08T19:57:53.234Z,29.00
2019-06-08T20:00:28.285Z,29.10
2019-06-08T20:03:00.129Z,28.60
2019-06-08T20:05:32.609Z,29.00
2019-06-08T20:08:05.127Z,29.10
2019-06-08T20:10:38.370Z,29.60
2019-06-08T20:13:10.945Z,30.00
2019-06-08T20:15:48.153Z,30.20
2019-06-08T20:18:18.865Z,30.10
2019-06-08T20:20:53.114Z,30.00
2019-06-08T20:23:27.467Z,29.70
2019-06-08T20:26:00.775Z,29.50
2019-06-08T20:28:33.342Z,29.60
2019-06-08T20:31:07.429Z,29.60
2019-06-08T20:33:39.874Z,29.60
2019-06-08T20:36:12.449Z,29.70
2019-06-08T20:38:45.829Z,29.50
2019-06-08T20:41:19.300Z,29.30
2019-06-08T20:43:53.659Z,29.30
2019-06-08T20:46:28.382Z,29.50
2019-06-08T20:48:59.830Z,29.60
2019-06-08T20:51:32.508Z,29.70
2019-06-08T20:54:07.855Z,29.70
2019-06-08T20:56:40.533Z,29.40
2019-06-08T20:59:27.108Z,29.00
2019-06-08T21:01:48.820Z,29.00
2019-06-08T21:04:21.267Z,28.70
2019-06-08T21:06:54.411Z,28.70
2019-06-08T21:09:27.790Z,28.80
2019-06-08T21:12:00.534Z,29.10
2019-06-08T21:14:33.239Z,29.20
2019-06-08T21:17:07.475Z,29.00
2019-06-08T21:19:39.279Z,28.80
2019-06-08T21:22:13.385Z,28.60
2019-06-08T21:24:50.042Z,28.20
2019-06-08T21:27:20.862Z,28.20
2019-06-08T21:29:59.878Z,28.60
2019-06-08T21:32:27.897Z,29.20
2019-06-08T21:35:00.540Z,29.30
2019-06-08T21:45:34.513Z,29.00
2019-06-08T21:50:43.673Z,29.10
2019-06-08T21:53:18.096Z,29.20
2019-06-08T21:55:50.647Z,28.80
2019-06-08T21:58:22.777Z,28.70
2019-06-08T22:00:59.092Z,28.90
2019-06-08T22:03:31.210Z,29.10
2019-06-08T22:06:04.109Z,29.10
2019-06-08T22:08:37.546Z,29.20
2019-06-08T22:11:10.126Z,29.50
2019-06-08T22:13:42.735Z,29.50
2019-06-08T22:16:15.693Z,29.60
2019-06-08T22:18:48.582Z,29.50
2019-06-08T22:21:21.461Z,29.50
2019-06-08T22:23:55.857Z,29.30
2019-06-08T22:26:28.357Z,29.20
2019-06-08T22:29:01.211Z,28.90
2019-06-08T22:31:34.131Z,28.70
2019-06-08T22:34:06.615Z,28.80
2019-06-08T22:36:39.038Z,29.00
2019-06-08T22:39:11.801Z,29.10
2019-06-08T22:41:44.197Z,29.00
2019-06-08T22:44:17.712Z,29.10
2019-06-08T22:46:50.524Z,29.10
2019-06-08T22:49:27.830Z,29.10
2019-06-08T22:52:00.832Z,29.00
2019-06-08T22:54:33.178Z,28.80
2019-06-08T22:57:07.990Z,28.20
2019-06-08T22:59:39.741Z,27.90
2019-06-08T23:02:12.753Z,28.00
2019-06-08T23:04:47.409Z,28.00
2019-06-08T23:07:28.592Z,28.10
2019-06-08T23:09:54.967Z,27.90
2019-06-08T23:12:28.745Z,27.90
2019-06-08T23:15:02.302Z,27.80
2019-06-08T23:17:38.334Z,27.80
2019-06-08T23:20:09.820Z,27.70
2019-06-08T23:22:43.075Z,27.70
2019-06-08T23:25:18.176Z,27.50
2019-06-08T23:27:50.148Z,27.50
2019-06-08T23:30:22.445Z,27.40
2019-06-08T23:32:56.524Z,27.30
2019-06-08T23:35:41.955Z,27.20
2019-06-08T23:38:02.976Z,27.10
2019-06-08T23:40:37.721Z,27.00
2019-06-08T23:43:09.848Z,26.80
2019-06-08T23:45:41.881Z,26.70
2019-06-08T23:48:17.139Z,26.50
2019-06-08T23:50:48.973Z,26.30
2019-06-08T23:53:21.828Z,26.10
2019-06-08T23:55:54.780Z,25.80
2019-06-08T23:58:27.846Z,25.60
